createdAt,value
2023-05-15T00:00:52.498Z,100.00
2023-05-15T00:03:21.173Z,100.00
2023-05-15T00:05:49.428Z,100.00
2023-05-15T00:08:18.748Z,100.00
2023-05-15T00:10:57.512Z,100.00
2023-05-15T00:13:29.347Z,100.00
2023-05-15T00:15:57.491Z,100.00
2023-05-15T00:18:25.647Z,100.00
2023-05-15T00:20:53.484Z,100.00
2023-05-15T00:23:22.847Z,100.00
2023-05-15T00:25:50.900Z,100.00
2023-05-15T00:28:18.865Z,100.00
2023-05-15T00:30:46.684Z,100.00
2023-05-15T00:33:14.560Z,100.00
2023-05-15T00:35:42.432Z,100.00
2023-05-15T00:38:10.783Z,100.00
2023-05-15T00:40:43.480Z,100.00
2023-05-15T00:43:12.622Z,100.00
2023-05-15T00:45:43.419Z,100.00
2023-05-15T00:48:12.243Z,100.00
2023-05-15T00:50:41.920Z,100.00
2023-05-15T00:53:10.950Z,100.00
2023-05-15T00:55:42.542Z,100.00
2023-05-15T00:58:11.168Z,100.00
2023-05-15T01:00:39.836Z,100.00
2023-05-15T01:03:08.033Z,100.00
2023-05-15T01:05:35.998Z,100.00
2023-05-15T01:08:16.690Z,100.00
2023-05-15T01:10:49.126Z,100.00
2023-05-15T01:13:20.758Z,100.00
2023-05-15T01:15:49.695Z,100.00
2023-05-15T01:18:17.753Z,100.00
2023-05-15T01:21:06.411Z,100.00
2023-05-15T01:23:49.754Z,100.00
2023-05-15T01:27:13.211Z,100.00
2023-05-15T01:29:51.053Z,100.00
2023-05-15T01:32:28.065Z,100.00
2023-05-15T01:35:09.082Z,100.00
2023-05-15T01:37:46.009Z,100.00
2023-05-15T01:40:18.603Z,100.00
2023-05-15T01:42:56.051Z,100.00
2023-05-15T01:45:25.386Z,100.00
2023-05-15T01:47:55.741Z,100.00
2023-05-15T01:50:26.864Z,100.00
2023-05-15T01:52:59.157Z,100.00
2023-05-15T01:55:30.491Z,100.00
2023-05-15T01:58:02.132Z,100.00
2023-05-15T02:00:32.389Z,100.00
2023-05-15T02:03:01.991Z,100.00
2023-05-15T02:05:31.474Z,100.00
2023-05-15T02:08:01.648Z,100.00
2023-05-15T02:10:31.990Z,100.00
2023-05-15T02:13:02.298Z,100.00
2023-05-15T02:15:30.765Z,100.00
2023-05-15T02:17:58.624Z,100.00
2023-05-15T02:20:26.518Z,100.00
2023-05-15T02:22:55.353Z,100.00
2023-05-15T02:25:38.487Z,100.00
2023-05-15T02:28:22.520Z,100.00
2023-05-15T02:30:58.052Z,100.00
2023-05-15T02:33:33.193Z,100.00
2023-05-15T02:36:07.903Z,100.00
2023-05-15T02:38:52.073Z,100.00
2023-05-15T02:41:23.640Z,100.00
2023-05-15T02:43:56.309Z,100.00
2023-05-15T02:46:25.677Z,100.00
2023-05-15T02:48:55.333Z,100.00
2023-05-15T02:51:23.656Z,100.00
2023-05-15T02:53:52.409Z,100.00
2023-05-15T02:56:20.759Z,100.00
2023-05-15T02:58:49.587Z,100.00
2023-05-15T03:01:18.862Z,100.00
2023-05-15T03:03:48.106Z,100.00
2023-05-15T03:06:16.563Z,100.00
2023-05-15T03:08:44.482Z,100.00
2023-05-15T03:11:12.476Z,100.00
2023-05-15T03:13:40.300Z,100.00
2023-05-15T03:16:08.400Z,100.00
2023-05-15T03:18:37.940Z,100.00
2023-05-15T03:21:06.112Z,100.00
2023-05-15T03:23:36.325Z,100.00
2023-05-15T03:26:05.632Z,100.00
2023-05-15T03:28:33.593Z,100.00
2023-05-15T03:31:01.703Z,100.00
2023-05-15T03:33:29.693Z,100.00
2023-05-15T03:35:58.931Z,100.00
2023-05-15T03:38:26.758Z,100.00
2023-05-15T03:40:54.539Z,100.00
2023-05-15T03:43:22.340Z,100.00
2023-05-15T03:45:50.307Z,100.00
2023-05-15T03:48:18.092Z,100.00
2023-05-15T03:50:46.446Z,100.00
2023-05-15T03:53:15.604Z,100.00
2023-05-15T03:55:43.778Z,100.00
2023-05-15T03:58:11.605Z,100.00
2023-05-15T04:00:39.513Z,100.00
2023-05-15T04:03:08.604Z,100.00
2023-05-15T04:05:36.725Z,100.00
2023-05-15T04:08:05.309Z,100.00
2023-05-15T04:10:34.547Z,100.00
2023-05-15T04:13:02.394Z,100.00
2023-05-15T04:15:30.416Z,100.00
2023-05-15T04:17:58.367Z,100.00
2023-05-15T04:20:26.415Z,100.00
2023-05-15T04:22:54.420Z,100.00
2023-05-15T04:25:22.681Z,100.00
2023-05-15T04:27:51.957Z,100.00
2023-05-15T04:30:19.689Z,100.00
2023-05-15T04:32:47.519Z,100.00
2023-05-15T04:35:15.600Z,100.00
2023-05-15T04:37:45.643Z,100.00
2023-05-15T04:40:16.247Z,100.00
2023-05-15T04:42:44.531Z,100.00
2023-05-15T04:45:14.706Z,100.00
2023-05-15T04:47:42.721Z,100.00
2023-05-15T04:50:11.366Z,100.00
2023-05-15T04:52:39.146Z,100.00
2023-05-15T04:55:09.371Z,100.00
2023-05-15T04:57:37.434Z,100.00
2023-05-15T05:00:13.885Z,100.00
2023-05-15T05:02:43.997Z,100.00
2023-05-15T05:05:14.589Z,100.00
2023-05-15T05:07:44.253Z,100.00
2023-05-15T05:10:13.647Z,100.00
2023-05-15T05:12:41.465Z,100.00
2023-05-15T05:15:10.749Z,100.00
2023-05-15T05:17:38.593Z,100.00
2023-05-15T05:20:12.689Z,100.00
2023-05-15T05:22:42.194Z,100.00
2023-05-15T05:25:10.988Z,100.00
2023-05-15T05:27:38.961Z,100.00
2023-05-15T05:30:09.099Z,100.00
2023-05-15T05:32:37.144Z,100.00
2023-05-15T05:35:07.519Z,100.00
2023-05-15T05:37:35.468Z,100.00
2023-05-15T05:40:06.749Z,100.00
2023-05-15T05:42:34.822Z,100.00
2023-05-15T05:45:02.625Z,100.00
2023-05-15T05:47:30.576Z,100.00
2023-05-15T05:49:58.445Z,100.00
2023-05-15T05:52:29.020Z,100.00
2023-05-15T05:54:56.815Z,100.00
2023-05-15T05:57:24.754Z,100.00
2023-05-15T05:59:52.660Z,100.00
2023-05-15T06:02:21.036Z,100.00
2023-05-15T06:04:48.843Z,100.00
2023-05-15T06:07:16.567Z,100.00
2023-05-15T06:09:46.927Z,100.00
2023-05-15T06:12:14.744Z,100.00
2023-05-15T06:14:42.635Z,100.00
2023-05-15T06:17:10.627Z,100.00
2023-05-15T06:19:38.485Z,100.00
2023-05-15T06:22:06.378Z,100.00
2023-05-15T06:24:34.310Z,100.00
2023-05-15T06:27:04.047Z,100.00
2023-05-15T06:29:31.892Z,100.00
2023-05-15T06:31:59.824Z,100.00
2023-05-15T06:34:27.602Z,100.00
2023-05-15T06:36:55.500Z,100.00
2023-05-15T06:39:23.444Z,100.00
2023-05-15T06:41:53.903Z,100.00
2023-05-15T06:44:23.677Z,100.00
2023-05-15T06:46:52.226Z,100.00
2023-05-15T06:49:20.025Z,100.00
2023-05-15T06:51:48.082Z,100.00
2023-05-15T06:54:16.120Z,100.00
2023-05-15T06:56:44.352Z,100.00
2023-05-15T06:59:12.197Z,100.00
2023-05-15T07:01:41.670Z,100.00
2023-05-15T07:04:09.494Z,100.00
2023-05-15T07:06:37.804Z,100.00
2023-05-15T07:09:06.196Z,100.00
2023-05-15T07:11:37.209Z,100.00
2023-05-15T07:14:07.421Z,100.00
2023-05-15T07:16:35.920Z,100.00
2023-05-15T07:19:05.318Z,100.00
2023-05-15T07:21:33.128Z,100.00
2023-05-15T07:24:01.105Z,100.00
2023-05-15T07:26:38.397Z,100.00
2023-05-15T07:29:09.530Z,100.00
2023-05-15T07:31:39.834Z,100.00
2023-05-15T07:34:09.314Z,100.00
2023-05-15T07:36:37.154Z,100.00
2023-05-15T07:39:05.144Z,100.00
2023-05-15T07:41:33.700Z,100.00
2023-05-15T07:44:01.609Z,100.00
2023-05-15T07:46:29.359Z,100.00
2023-05-15T07:48:57.252Z,100.00
2023-05-15T07:51:26.528Z,100.00
2023-05-15T07:53:54.403Z,100.00
2023-05-15T07:56:22.487Z,100.00
2023-05-15T07:58:50.436Z,100.00
2023-05-15T08:01:18.311Z,100.00
2023-05-15T08:03:46.298Z,100.00
2023-05-15T08:06:14.164Z,100.00
2023-05-15T08:08:43.674Z,100.00
2023-05-15T08:11:11.559Z,100.00
2023-05-15T08:13:39.416Z,100.00
2023-05-15T08:16:07.357Z,100.00
2023-05-15T08:18:35.610Z,100.00
2023-05-15T08:21:04.773Z,100.00
2023-05-15T08:23:32.641Z,100.00
2023-05-15T08:26:01.842Z,100.00
2023-05-15T08:28:29.914Z,100.00
2023-05-15T08:30:57.810Z,100.00
2023-05-15T08:33:25.725Z,100.00
2023-05-15T08:35:53.584Z,100.00
2023-05-15T08:38:22.489Z,100.00
2023-05-15T08:40:57.737Z,100.00
2023-05-15T08:43:33.207Z,100.00
2023-05-15T08:46:01.940Z,100.00
2023-05-15T08:48:30.494Z,100.00
2023-05-15T08:51:01.534Z,100.00
2023-05-15T08:53:30.608Z,100.00
2023-05-15T08:55:58.640Z,100.00
2023-05-15T08:58:28.733Z,100.00
2023-05-15T09:00:58.037Z,100.00
2023-05-15T09:03:26.834Z,100.00
2023-05-15T09:05:55.502Z,100.00
2023-05-15T09:08:25.737Z,100.00
2023-05-15T09:10:56.465Z,100.00
2023-05-15T09:13:24.369Z,100.00
2023-05-15T09:15:54.057Z,100.00
2023-05-15T09:18:23.047Z,100.00
2023-05-15T09:20:51.844Z,100.00
2023-05-15T09:23:26.514Z,100.00
2023-05-15T09:25:56.708Z,100.00
2023-05-15T09:28:28.006Z,100.00
2023-05-15T09:31:03.428Z,100.00
2023-05-15T09:33:34.119Z,100.00
2023-05-15T09:36:03.156Z,100.00
2023-05-15T09:38:33.535Z,100.00
2023-05-15T09:41:03.931Z,100.00
2023-05-15T09:43:35.292Z,100.00
2023-05-15T09:46:06.018Z,100.00
2023-05-15T09:48:35.627Z,100.00
2023-05-15T09:51:07.510Z,100.00
2023-05-15T09:53:35.702Z,100.00
2023-05-15T09:56:03.798Z,100.00
2023-05-15T09:58:32.157Z,100.00
2023-05-15T10:01:01.287Z,100.00
2023-05-15T10:03:30.719Z,100.00
2023-05-15T10:06:03.502Z,100.00
2023-05-15T10:08:31.739Z,100.00
2023-05-15T10:11:03.293Z,100.00
2023-05-15T10:13:35.554Z,100.00
2023-05-15T10:16:05.283Z,100.00
2023-05-15T10:18:38.641Z,100.00
2023-05-15T10:21:20.248Z,100.00
2023-05-15T10:23:50.632Z,100.00
2023-05-15T10:26:27.208Z,100.00
2023-05-15T10:28:58.845Z,100.00
2023-05-15T10:31:28.195Z,100.00
2023-05-15T10:34:00.223Z,100.00
2023-05-15T10:36:29.012Z,94.25
2023-05-15T10:38:58.551Z,94.06
2023-05-15T10:41:29.184Z,95.23
2023-05-15T10:44:00.237Z,89.15
2023-05-15T10:46:33.488Z,91.02
2023-05-15T10:49:03.340Z,95.15
2023-05-15T10:51:33.203Z,89.56
2023-05-15T10:54:03.781Z,93.63
2023-05-15T10:56:33.188Z,93.09
2023-05-15T10:59:07.880Z,87.16
2023-05-15T11:01:38.884Z,84.41
2023-05-15T11:04:12.489Z,77.04
2023-05-15T11:06:42.746Z,73.26
2023-05-15T11:09:39.334Z,76.95
2023-05-15T11:12:09.878Z,71.61
2023-05-15T11:14:40.936Z,70.77
2023-05-15T11:17:10.879Z,62.54
2023-05-15T11:19:57.813Z,60.66
2023-05-15T11:22:32.525Z,58.37
2023-05-15T11:25:03.868Z,55.64
2023-05-15T11:27:39.262Z,56.84
2023-05-15T11:30:12.125Z,55.21
2023-05-15T11:32:58.435Z,54.60
2023-05-15T11:35:32.546Z,50.75
2023-05-15T11:38:03.572Z,48.04
2023-05-15T11:40:43.248Z,48.93
2023-05-15T11:43:19.101Z,47.54
2023-05-15T11:45:51.083Z,50.81
2023-05-15T11:48:20.279Z,48.21
2023-05-15T11:50:50.605Z,49.88
2023-05-15T11:53:19.641Z,45.94
2023-05-15T11:55:47.437Z,43.41
2023-05-15T11:58:18.241Z,43.53
2023-05-15T12:00:48.558Z,45.25
2023-05-15T12:03:20.280Z,43.20
2023-05-15T12:05:59.092Z,43.62
2023-05-15T12:08:33.167Z,43.55
2023-05-15T12:11:02.816Z,41.08
2023-05-15T12:13:32.007Z,42.72
2023-05-15T12:16:02.026Z,42.46
2023-05-15T12:18:31.814Z,41.51
2023-05-15T12:21:01.438Z,40.91
2023-05-15T12:23:29.374Z,40.60
2023-05-15T12:26:01.612Z,41.44
2023-05-15T12:28:31.945Z,39.91
2023-05-15T12:31:00.219Z,38.04
2023-05-15T12:33:28.640Z,37.56
2023-05-15T12:36:01.248Z,36.57
2023-05-15T12:38:33.865Z,36.49
2023-05-15T12:41:01.867Z,36.77
2023-05-15T12:43:31.707Z,35.03
2023-05-15T12:45:59.703Z,34.56
2023-05-15T12:48:33.905Z,33.64
2023-05-15T12:51:07.056Z,35.49
2023-05-15T12:53:39.453Z,34.72
2023-05-15T12:56:08.955Z,33.73
2023-05-15T12:58:38.177Z,32.94
2023-05-15T13:01:06.294Z,33.63
2023-05-15T13:03:34.778Z,32.55
2023-05-15T13:06:03.742Z,32.74
2023-05-15T13:08:31.907Z,32.73
2023-05-15T13:11:01.282Z,31.31
2023-05-15T13:13:46.726Z,31.93
2023-05-15T13:16:20.833Z,32.98
2023-05-15T13:18:49.212Z,34.28
2023-05-15T13:21:17.558Z,34.20
2023-05-15T13:23:45.804Z,33.99
2023-05-15T13:26:14.957Z,31.44
2023-05-15T13:28:42.866Z,32.66
2023-05-15T13:31:10.919Z,33.81
2023-05-15T13:33:39.298Z,33.76
2023-05-15T13:36:07.886Z,34.52
2023-05-15T13:38:36.280Z,34.95
2023-05-15T13:41:04.595Z,34.08
2023-05-15T13:43:33.794Z,34.80
2023-05-15T13:46:01.758Z,35.92
2023-05-15T13:48:29.567Z,35.55
2023-05-15T13:50:57.318Z,34.71
2023-05-15T13:53:25.301Z,34.81
2023-05-15T13:55:53.116Z,34.54
2023-05-15T13:58:21.083Z,32.64
2023-05-15T14:00:50.332Z,34.20
2023-05-15T14:03:18.388Z,33.19
2023-05-15T14:05:46.352Z,34.43
2023-05-15T14:08:15.768Z,33.48
2023-05-15T14:10:43.600Z,34.97
2023-05-15T14:13:11.435Z,34.06
2023-05-15T14:15:39.352Z,33.98
2023-05-15T14:18:08.565Z,35.06
2023-05-15T14:20:36.474Z,35.79
2023-05-15T14:23:04.308Z,36.32
2023-05-15T14:25:32.161Z,38.04
2023-05-15T14:27:59.992Z,39.06
2023-05-15T14:30:28.076Z,39.90
2023-05-15T14:32:56.178Z,39.73
2023-05-15T14:35:25.497Z,40.17
2023-05-15T14:37:53.365Z,41.14
2023-05-15T14:40:21.218Z,39.04
2023-05-15T14:42:49.034Z,38.63
2023-05-15T14:45:16.940Z,39.17
2023-05-15T14:47:44.957Z,38.57
2023-05-15T14:50:12.776Z,39.06
2023-05-15T14:52:42.207Z,39.08
2023-05-15T14:55:10.659Z,40.04
2023-05-15T14:57:38.635Z,40.22
2023-05-15T15:00:09.503Z,38.39
2023-05-15T15:02:37.743Z,39.02
2023-05-15T15:05:07.235Z,38.58
2023-05-15T15:08:02.253Z,40.08
2023-05-15T15:10:31.472Z,40.68
2023-05-15T15:12:59.994Z,41.17
2023-05-15T15:15:29.040Z,41.39
2023-05-15T15:17:57.694Z,40.12
2023-05-15T15:20:27.660Z,40.30
2023-05-15T15:22:56.781Z,40.87
2023-05-15T15:25:26.546Z,38.74
2023-05-15T15:27:54.469Z,38.38
2023-05-15T15:30:22.383Z,38.12
2023-05-15T15:32:50.265Z,37.83
2023-05-15T15:35:18.182Z,37.82
2023-05-15T15:37:46.020Z,36.02
2023-05-15T15:40:13.939Z,34.17
2023-05-15T15:42:43.077Z,34.74
2023-05-15T15:45:11.546Z,34.86
2023-05-15T15:47:39.536Z,33.63
2023-05-15T15:50:08.709Z,34.06
2023-05-15T15:52:36.785Z,35.26
2023-05-15T15:55:06.102Z,35.42
2023-05-15T15:57:34.032Z,36.71
2023-05-15T16:00:04.159Z,37.91
2023-05-15T16:02:33.594Z,38.69
2023-05-15T16:05:02.082Z,38.50
2023-05-15T16:07:29.938Z,38.56
2023-05-15T16:10:10.853Z,38.10
2023-05-15T16:12:42.248Z,40.19
2023-05-15T16:15:22.331Z,40.37
2023-05-15T16:17:53.655Z,39.04
2023-05-15T16:20:22.556Z,38.52
2023-05-15T16:22:50.488Z,38.15
2023-05-15T16:25:18.601Z,39.26
2023-05-15T16:27:46.357Z,41.21
2023-05-15T16:30:15.851Z,42.44
2023-05-15T16:32:43.862Z,43.61
2023-05-15T16:35:11.761Z,46.77
2023-05-15T16:37:39.821Z,51.67
2023-05-15T16:40:09.229Z,58.57
2023-05-15T16:42:38.151Z,71.46
2023-05-15T16:45:08.191Z,86.82
2023-05-15T16:47:41.575Z,95.46
2023-05-15T16:50:10.454Z,98.19
2023-05-15T16:52:39.490Z,100.00
2023-05-15T16:55:08.571Z,100.00
2023-05-15T16:57:36.414Z,100.00
2023-05-15T17:00:08.587Z,100.00
2023-05-15T17:02:38.011Z,100.00
2023-05-15T17:05:10.495Z,100.00
2023-05-15T17:07:39.075Z,100.00
2023-05-15T17:10:08.887Z,100.00
2023-05-15T17:12:37.603Z,100.00
2023-05-15T17:15:07.495Z,100.00
2023-05-15T17:17:35.780Z,100.00
2023-05-15T17:20:06.907Z,100.00
2023-05-15T17:22:35.236Z,100.00
2023-05-15T17:25:04.245Z,100.00
2023-05-15T17:27:32.291Z,100.00
2023-05-15T17:30:00.841Z,100.00
2023-05-15T17:32:28.806Z,100.00
2023-05-15T17:34:56.666Z,100.00
2023-05-15T17:37:25.914Z,100.00
2023-05-15T17:39:54.629Z,100.00
2023-05-15T17:42:24.986Z,100.00
2023-05-15T17:44:52.902Z,100.00
2023-05-15T17:47:20.658Z,100.00
2023-05-15T17:49:48.525Z,100.00
2023-05-15T17:52:16.517Z,100.00
2023-05-15T17:54:45.900Z,100.00
2023-05-15T17:57:13.793Z,100.00
2023-05-15T17:59:41.607Z,100.00
2023-05-15T18:02:09.458Z,100.00
2023-05-15T18:04:37.365Z,100.00
2023-05-15T18:07:05.514Z,100.00
2023-05-15T18:09:33.298Z,100.00
2023-05-15T18:12:02.371Z,100.00
2023-05-15T18:14:30.370Z,100.00
2023-05-15T18:16:58.336Z,100.00
2023-05-15T18:19:26.158Z,100.00
2023-05-15T18:21:54.024Z,100.00
2023-05-15T18:24:21.803Z,100.00
2023-05-15T18:26:49.610Z,100.00
2023-05-15T18:29:18.789Z,100.00
2023-05-15T18:31:46.719Z,100.00
2023-05-15T18:34:14.599Z,100.00
2023-05-15T18:36:42.456Z,100.00
2023-05-15T18:39:10.360Z,100.00
2023-05-15T18:41:38.158Z,100.00
2023-05-15T18:44:06.006Z,100.00
2023-05-15T18:46:35.920Z,100.00
2023-05-15T18:49:03.854Z,100.00
2023-05-15T18:51:31.902Z,100.00
2023-05-15T18:53:59.750Z,100.00
2023-05-15T18:56:28.379Z,100.00
2023-05-15T18:58:56.250Z,100.00
2023-05-15T19:01:24.133Z,100.00
2023-05-15T19:03:53.355Z,100.00
2023-05-15T19:06:21.448Z,100.00
2023-05-15T19:08:49.332Z,100.00
2023-05-15T19:11:18.411Z,100.00
2023-05-15T19:13:46.311Z,100.00
2023-05-15T19:16:14.137Z,100.00
2023-05-15T19:18:42.162Z,100.00
2023-05-15T19:21:11.440Z,100.00
2023-05-15T19:23:39.339Z,100.00
2023-05-15T19:26:07.105Z,100.00
2023-05-15T19:28:35.162Z,100.00
2023-05-15T19:31:04.373Z,100.00
2023-05-15T19:33:32.658Z,100.00
2023-05-15T19:36:00.524Z,100.00
2023-05-15T19:38:29.816Z,100.00
2023-05-15T19:40:58.525Z,100.00
2023-05-15T19:43:27.446Z,100.00
2023-05-15T19:45:55.286Z,100.00
2023-05-15T19:48:23.164Z,100.00
2023-05-15T19:50:51.161Z,100.00
2023-05-15T19:53:19.032Z,100.00
2023-05-15T19:55:48.575Z,100.00
2023-05-15T19:58:16.509Z,100.00
2023-05-15T20:00:44.525Z,100.00
2023-05-15T20:03:12.449Z,100.00
2023-05-15T20:05:41.266Z,100.00
2023-05-15T20:08:09.100Z,100.00
2023-05-15T20:10:37.027Z,100.00
2023-05-15T20:13:06.324Z,100.00
2023-05-15T20:15:35.057Z,100.00
2023-05-15T20:18:03.073Z,100.00
2023-05-15T20:20:31.224Z,100.00
2023-05-15T20:22:59.041Z,100.00
2023-05-15T20:25:27.113Z,100.00
2023-05-15T20:27:56.980Z,100.00
2023-05-15T20:30:28.030Z,100.00
2023-05-15T20:32:56.294Z,100.00
2023-05-15T20:35:25.074Z,100.00
2023-05-15T20:37:53.200Z,100.00
2023-05-15T20:40:22.828Z,100.00
2023-05-15T20:42:51.532Z,100.00
2023-05-15T20:45:19.832Z,100.00
2023-05-15T20:47:49.540Z,100.00
2023-05-15T20:50:19.135Z,100.00
2023-05-15T20:52:47.139Z,100.00
2023-05-15T20:55:17.232Z,100.00
2023-05-15T20:57:46.846Z,100.00
2023-05-15T21:00:17.420Z,100.00
2023-05-15T21:02:46.783Z,100.00
2023-05-15T21:05:16.135Z,100.00
2023-05-15T21:07:44.360Z,100.00
2023-05-15T21:10:12.284Z,100.00
2023-05-15T21:12:40.685Z,100.00
2023-05-15T21:15:11.062Z,100.00
2023-05-15T21:17:39.787Z,100.00
2023-05-15T21:20:09.643Z,100.00
2023-05-15T21:22:39.188Z,100.00
2023-05-15T21:25:08.332Z,100.00
2023-05-15T21:27:36.244Z,100.00
2023-05-15T21:30:06.051Z,100.00
2023-05-15T21:32:34.011Z,100.00
2023-05-15T21:35:01.892Z,100.00
2023-05-15T21:37:29.754Z,100.00
2023-05-15T21:39:58.878Z,100.00
2023-05-15T21:42:26.762Z,100.00
2023-05-15T21:44:54.808Z,100.00
2023-05-15T21:47:22.791Z,100.00
2023-05-15T21:52:36.688Z,100.00
2023-05-15T21:55:08.165Z,100.00
2023-05-15T21:57:36.154Z,100.00
2023-05-15T22:00:07.426Z,100.00
2023-05-15T22:02:35.881Z,100.00
2023-05-15T22:05:04.784Z,100.00
2023-05-15T22:07:32.754Z,100.00
2023-05-15T22:10:03.056Z,100.00
2023-05-15T22:12:34.689Z,100.00
2023-05-15T22:15:02.527Z,100.00
2023-05-15T22:17:30.775Z,100.00
2023-05-15T22:20:08.190Z,100.00
2023-05-15T22:22:36.341Z,100.00
2023-05-15T22:25:06.021Z,100.00
2023-05-15T22:27:35.346Z,100.00
2023-05-15T22:30:03.781Z,100.00
2023-05-15T22:32:31.908Z,100.00
2023-05-15T22:35:00.710Z,100.00
2023-05-15T22:37:28.454Z,100.00
2023-05-15T22:39:56.468Z,100.00
2023-05-15T22:42:24.294Z,100.00
2023-05-15T22:44:55.336Z,100.00
2023-05-15T22:47:23.450Z,100.00
2023-05-15T22:49:51.648Z,100.00
2023-05-15T22:52:20.023Z,100.00
2023-05-15T22:54:52.418Z,100.00
2023-05-15T22:57:20.408Z,100.00
2023-05-15T22:59:48.147Z,100.00
2023-05-15T23:02:17.430Z,100.00
2023-05-15T23:04:45.204Z,100.00
2023-05-15T23:10:32.433Z,100.00
2023-05-15T23:13:02.540Z,100.00
2023-05-15T23:15:30.470Z,100.00
2023-05-15T23:17:59.836Z,100.00
2023-05-15T23:20:28.070Z,100.00
2023-05-15T23:22:56.201Z,100.00
2023-05-15T23:25:24.160Z,100.00
2023-05-15T23:27:52.932Z,100.00
2023-05-15T23:30:21.079Z,100.00
2023-05-15T23:32:50.184Z,100.00
2023-05-15T23:35:20.007Z,100.00
2023-05-15T23:37:47.950Z,100.00
2023-05-15T23:40:16.010Z,100.00
2023-05-15T23:42:43.930Z,100.00
2023-05-15T23:45:13.770Z,100.00
2023-05-15T23:47:41.898Z,100.00
2023-05-15T23:50:10.375Z,100.00
2023-05-15T23:52:39.767Z,100.00
2023-05-15T23:55:08.517Z,100.00
2023-05-15T23:57:36.516Z,100.00
